TimeEDT,TemperatureF,Dew PointF,Humidity,Sea Level PressureIn,VisibilityMPH,Wind Direction,Wind SpeedMPH,Gust SpeedMPH,PrecipitationIn,Events,Conditions,WindDirDegrees,DateUTC
12:15 AM,73.4,69.8,88,29.89,10.0,Calm,Calm,-,N/A,,Overcast,0,2013-09-25 04:15:00
12:35 AM,73.4,69.8,88,29.88,10.0,East,3.5,-,N/A,Rain,Light Rain,80,2013-09-25 04:35:00
12:55 AM,71.6,71.6,100,29.88,10.0,Calm,Calm,-,N/A,Rain,Light Rain,0,2013-09-25 04:55:00
1:15 AM,71.6,71.6,100,29.87,7.0,Calm,Calm,-,N/A,Rain,Rain,0,2013-09-25 05:15:00
1:35 AM,71.6,71.6,100,29.86,7.0,Calm,Calm,-,N/A,Rain,Light Rain,0,2013-09-25 05:35:00
1:55 AM,71.6,71.6,100,29.84,7.0,ESE,3.5,-,N/A,Rain,Light Rain,110,2013-09-25 05:55:00
2:15 AM,71.6,71.6,100,29.83,7.0,ESE,3.5,-,N/A,Rain,Rain,110,2013-09-25 06:15:00
2:35 AM,71.6,69.8,94,29.82,5.0,ESE,4.6,-,N/A,Rain,Rain,110,2013-09-25 06:35:00
2:55 AM,71.6,69.8,94,29.82,5.0,East,4.6,-,N/A,Rain,Rain,100,2013-09-25 06:55:00
3:15 AM,69.8,69.8,100,29.80,5.0,Calm,Calm,-,N/A,Rain,Rain,0,2013-09-25 07:15:00
3:35 AM,69.8,69.8,100,29.80,7.0,ESE,4.6,-,N/A,Rain,Rain,110,2013-09-25 07:35:00
3:55 AM,69.8,69.8,100,29.80,7.0,SE,5.8,-,N/A,,Light Drizzle,130,2013-09-25 07:55:00
4:15 AM,69.8,69.8,100,29.80,7.0,SE,5.8,-,N/A,,Mostly Cloudy,140,2013-09-25 08:15:00
4:35 AM,69.8,69.8,100,29.80,5.0,SE,4.6,-,N/A,,Mostly Cloudy,140,2013-09-25 08:35:00
4:55 AM,71.6,69.8,94,29.80,5.0,Calm,Calm,-,N/A,,Mostly Cloudy,0,2013-09-25 08:55:00
5:15 AM,69.8,69.8,100,29.81,5.0,Calm,Calm,-,N/A,,Overcast,0,2013-09-25 09:15:00
5:35 AM,71.6,71.6,100,29.80,7.0,ENE,3.5,-,N/A,,Overcast,70,2013-09-25 09:35:00
5:55 AM,69.8,69.8,100,29.79,5.0,Calm,Calm,-,N/A,,Overcast,0,2013-09-25 09:55:00
6:15 AM,71.6,71.6,100,29.80,5.0,Calm,Calm,-,N/A,,Overcast,0,2013-09-25 10:15:00
6:35 AM,71.6,71.6,100,29.81,5.0,Calm,Calm,-,N/A,,Overcast,0,2013-09-25 10:35:00
6:55 AM,71.6,71.6,100,29.82,7.0,Calm,Calm,-,N/A,,Overcast,0,2013-09-25 10:55:00
7:15 AM,71.6,71.6,100,29.82,5.0,Calm,Calm,-,N/A,,Overcast,0,2013-09-25 11:15:00
7:35 AM,71.6,71.6,100,29.83,5.0,Calm,Calm,-,N/A,,Overcast,0,2013-09-25 11:35:00
7:55 AM,71.6,71.6,100,29.83,3.0,Calm,Calm,-,N/A,,Overcast,0,2013-09-25 11:55:00
8:15 AM,71.6,71.6,100,29.83,3.0,Calm,Calm,-,N/A,,Overcast,0,2013-09-25 12:15:00
8:35 AM,71.6,71.6,100,29.83,4.0,East,3.5,-,N/A,,Overcast,100,2013-09-25 12:35:00
8:55 AM,71.6,71.6,100,29.83,3.0,East,3.5,-,N/A,,Overcast,100,2013-09-25 12:55:00
9:15 AM,71.6,71.6,100,29.84,2.5,Calm,Calm,-,N/A,,Overcast,0,2013-09-25 13:15:00
9:35 AM,71.6,71.6,100,29.84,1.2,Calm,Calm,-,N/A,,Overcast,0,2013-09-25 13:35:00
9:55 AM,71.6,71.6,100,29.84,2.0,Calm,Calm,-,N/A,,Overcast,0,2013-09-25 13:55:00
10:15 AM,73.4,73.4,100,29.85,4.0,ESE,3.5,-,N/A,,Overcast,120,2013-09-25 14:15:00
10:35 AM,73.4,73.4,100,29.85,4.0,Calm,Calm,-,N/A,,Overcast,0,2013-09-25 14:35:00
10:55 AM,73.4,73.4,100,29.85,5.0,Calm,Calm,-,N/A,,Overcast,0,2013-09-25 14:55:00
11:15 AM,75.2,73.4,94,29.85,7.0,Calm,Calm,-,N/A,,Overcast,0,2013-09-25 15:15:00
11:35 AM,77.0,73.4,89,29.85,10.0,Calm,Calm,-,N/A,,Overcast,0,2013-09-25 15:35:00
11:55 AM,77.0,73.4,89,29.84,10.0,SSE,3.5,-,N/A,,Overcast,150,2013-09-25 15:55:00
12:15 PM,78.8,73.4,83,29.83,10.0,Calm,Calm,-,N/A,,Overcast,0,2013-09-25 16:15:00
12:35 PM,78.8,73.4,83,29.83,10.0,Calm,Calm,-,N/A,,Overcast,0,2013-09-25 16:35:00
12:55 PM,78.8,71.6,78,29.82,10.0,Calm,Calm,-,N/A,,Mostly Cloudy,0,2013-09-25 16:55:00
1:15 PM,80.6,71.6,74,29.82,10.0,SE,3.5,-,N/A,,Overcast,130,2013-09-25 17:15:00
1:35 PM,80.6,71.6,74,29.81,10.0,Calm,Calm,-,N/A,,Overcast,0,2013-09-25 17:35:00
2:15 PM,82.4,71.6,70,29.80,10.0,Calm,Calm,-,N/A,,Overcast,0,2013-09-25 18:15:00
2:35 PM,82.4,71.6,70,29.79,10.0,Calm,Calm,-,N/A,,Overcast,0,2013-09-25 18:35:00
2:55 PM,82.4,71.6,70,29.78,10.0,Calm,Calm,-,N/A,,Mostly Cloudy,0,2013-09-25 18:55:00
3:15 PM,82.4,71.6,70,29.77,10.0,Calm,Calm,-,N/A,,Mostly Cloudy,0,2013-09-25 19:15:00
3:35 PM,84.2,71.6,66,29.77,10.0,Calm,Calm,-,N/A,,Mostly Cloudy,0,2013-09-25 19:35:00
3:55 PM,82.4,71.6,70,29.77,10.0,North,3.5,-,N/A,,Mostly Cloudy,360,2013-09-25 19:55:00
4:15 PM,82.4,71.6,70,29.77,10.0,Calm,Calm,-,N/A,,Mostly Cloudy,0,2013-09-25 20:15:00
4:55 PM,84.2,69.8,62,29.76,10.0,Calm,Calm,-,N/A,,Scattered Clouds,0,2013-09-25 20:55:00
5:15 PM,86.0,71.6,62,29.76,10.0,Calm,Calm,-,N/A,,Mostly Cloudy,0,2013-09-25 21:15:00
5:35 PM,86.0,71.6,62,29.76,10.0,Calm,Calm,-,N/A,,Mostly Cloudy,0,2013-09-25 21:35:00
5:55 PM,86.0,69.8,58,29.76,10.0,North,3.5,-,N/A,,Scattered Clouds,350,2013-09-25 21:55:00
6:15 PM,84.2,71.6,66,29.77,10.0,Calm,Calm,-,N/A,,Mostly Cloudy,0,2013-09-25 22:15:00
6:35 PM,82.4,71.6,70,29.77,10.0,Calm,Calm,-,N/A,,Mostly Cloudy,0,2013-09-25 22:35:00
6:55 PM,82.4,73.4,74,29.77,10.0,Calm,Calm,-,N/A,,Overcast,0,2013-09-25 22:55:00
7:15 PM,82.4,73.4,74,29.78,10.0,Calm,Calm,-,N/A,,Overcast,0,2013-09-25 23:15:00
7:35 PM,80.6,73.4,79,29.78,10.0,Calm,Calm,-,N/A,,Mostly Cloudy,0,2013-09-25 23:35:00
7:55 PM,78.8,75.2,89,29.78,10.0,Calm,Calm,-,N/A,,Scattered Clouds,0,2013-09-25 23:55:00
8:15 PM,78.8,73.4,83,29.78,10.0,Calm,Calm,-,N/A,,Scattered Clouds,0,2013-09-26 00:15:00
8:35 PM,77.0,73.4,89,29.79,10.0,Calm,Calm,-,N/A,,Scattered Clouds,0,2013-09-26 00:35:00
8:55 PM,77.0,73.4,89,29.79,10.0,Calm,Calm,-,N/A,,Clear,0,2013-09-26 00:55:00
9:15 PM,77.0,73.4,89,29.80,10.0,Calm,Calm,-,N/A,,Clear,0,2013-09-26 01:15:00
9:35 PM,77.0,73.4,89,29.80,10.0,Calm,Calm,-,N/A,,Clear,0,2013-09-26 01:35:00
9:55 PM,77.0,73.4,89,29.80,10.0,Calm,Calm,-,N/A,,Scattered Clouds,0,2013-09-26 01:55:00
10:15 PM,75.2,73.4,94,29.80,10.0,Calm,Calm,-,N/A,,Clear,0,2013-09-26 02:15:00
10:35 PM,75.2,73.4,94,29.80,10.0,Calm,Calm,-,N/A,,Scattered Clouds,0,2013-09-26 02:35:00
10:55 PM,73.4,73.4,100,29.80,10.0,Calm,Calm,-,N/A,,Clear,0,2013-09-26 02:55:00
11:15 PM,73.4,73.4,100,29.80,10.0,Calm,Calm,-,N/A,,Clear,0,2013-09-26 03:15:00
11:35 PM,73.4,73.4,100,29.80,10.0,Calm,Calm,-,N/A,,Scattered Clouds,0,2013-09-26 03:35:00
11:55 PM,73.4,73.4,100,29.81,10.0,Calm,Calm,-,N/A,,Scattered Clouds,0,2013-09-26 03:55:00